logo
Search for airport 
image banner adimage banner adimage banner ad
image banner ad

VCRI - Mattala Rajapaksa International Airport

Located in Hambantota, Sri Lanka

ICAO - VCRI, IATA - HRI

Data provided by Airmate  

General information

Coordinates: N6°17'4" E81°7'27"
Elevation is 159 feet MSL.
 
View others Airports in Southern Province

Operational data

Special qualification required
Current time UTC:
Current local time:
Weather
TAF: TAF VCRI 131700Z 1318/1424 VRB05KT 9999 FEW018 TX35/1407Z TN24/1400Z BECMG 1403/1405 07008KT PROB30 TEMPO 1409/1415 VRB20G30KT 7000 -TSRA/SHRA SCT014 FEW018CB BKN080 BECMG 1414/1416 VRB05KT
View NOTAMs / SUP AIP / TFR affecting this airport [VIEW]
Communications frequencies: [VIEW]

Runways:

RWY identifierQFULength (ft)Width (ft)SurfaceLDA (ft)
0546°11483197Asphalt
23226°11483197Asphalt

Airport contact information

Address: Hambantota Sri Lanka

Satellite view of VCRI